createdAt,value
2022-11-15T00:02:40.023Z,4.93
2022-11-15T00:05:27.460Z,5.42
2022-11-15T00:08:14.389Z,5.36
2022-11-15T00:11:04.550Z,5.36
2022-11-15T00:13:51.578Z,5.36
2022-11-15T00:16:38.138Z,5.38
2022-11-15T00:19:24.799Z,5.36
2022-11-15T00:22:11.897Z,5.28
2022-11-15T00:24:58.161Z,5.30
2022-11-15T00:27:46.489Z,5.32
2022-11-15T00:30:33.208Z,5.11
2022-11-15T00:33:19.957Z,5.24
2022-11-15T00:36:10.361Z,5.32
2022-11-15T00:38:57.326Z,5.35
2022-11-15T00:41:44.098Z,5.01
2022-11-15T00:44:31.032Z,5.04
2022-11-15T00:47:17.402Z,5.13
2022-11-15T00:50:05.521Z,5.20
2022-11-15T00:52:52.188Z,5.33
2022-11-15T00:55:38.987Z,5.33
2022-11-15T00:58:25.280Z,5.28
2022-11-15T01:01:15.938Z,5.29
2022-11-15T01:04:02.602Z,5.27
2022-11-15T01:06:49.765Z,5.18
2022-11-15T01:09:36.321Z,5.28
2022-11-15T01:12:23.352Z,5.17
2022-11-15T01:15:09.967Z,5.24
2022-11-15T01:17:57.263Z,5.26
2022-11-15T01:20:44.390Z,5.20
2022-11-15T01:23:31.379Z,5.12
2022-11-15T01:26:18.068Z,4.75
2022-11-15T01:29:05.495Z,4.72
2022-11-15T01:31:53.577Z,5.01
2022-11-15T01:34:40.196Z,5.08
2022-11-15T01:37:26.991Z,5.03
2022-11-15T01:40:14.232Z,4.87
2022-11-15T01:43:19.736Z,4.83
2022-11-15T01:46:35.018Z,5.02
2022-11-15T01:49:24.876Z,5.07
2022-11-15T01:52:19.151Z,5.05
2022-11-15T01:55:22.748Z,5.06
2022-11-15T01:58:09.793Z,4.68
2022-11-15T02:00:57.338Z,4.67
2022-11-15T02:04:29.152Z,4.97
2022-11-15T02:07:21.149Z,4.94
2022-11-15T02:10:20.226Z,4.67
2022-11-15T02:13:06.947Z,4.69
2022-11-15T02:16:05.927Z,4.86
2022-11-15T02:19:50.985Z,4.95
2022-11-15T02:23:12.757Z,4.93
2022-11-15T02:26:27.422Z,4.69
2022-11-15T02:29:57.264Z,4.86
2022-11-15T02:33:15.477Z,4.82
2022-11-15T02:36:10.151Z,4.77
2022-11-15T02:39:16.756Z,4.72
2022-11-15T02:42:46.119Z,4.68
2022-11-15T02:45:40.543Z,4.48
2022-11-15T02:48:27.584Z,4.58
2022-11-15T02:51:15.855Z,4.30
2022-11-15T02:54:02.597Z,4.58
2022-11-15T02:56:50.724Z,4.60
2022-11-15T03:00:09.654Z,4.65
2022-11-15T03:03:50.088Z,4.41
2022-11-15T03:06:57.455Z,4.70
2022-11-15T03:10:07.822Z,4.74
2022-11-15T03:13:06.024Z,4.78
2022-11-15T03:16:08.383Z,4.69
2022-11-15T03:19:27.235Z,4.60
2022-11-15T03:22:19.045Z,4.58
2022-11-15T03:25:12.375Z,4.50
2022-11-15T03:28:03.760Z,4.44
2022-11-15T03:30:53.222Z,4.63
2022-11-15T03:33:41.184Z,4.54
2022-11-15T03:36:30.976Z,4.54
2022-11-15T03:39:20.582Z,4.54
2022-11-15T03:42:50.141Z,4.54
2022-11-15T03:45:52.042Z,4.61
2022-11-15T03:48:51.064Z,4.49
2022-11-15T03:51:37.776Z,4.24
2022-11-15T03:54:24.907Z,4.50
2022-11-15T03:57:11.357Z,4.50
2022-11-15T03:59:58.356Z,4.54
2022-11-15T04:02:44.895Z,4.54
2022-11-15T04:05:31.972Z,4.38
2022-11-15T04:08:18.815Z,4.48
2022-11-15T04:11:05.628Z,4.37
2022-11-15T04:13:52.212Z,4.61
2022-11-15T04:16:43.672Z,4.36
2022-11-15T04:19:49.048Z,4.59
2022-11-15T04:22:54.669Z,4.27
2022-11-15T04:25:43.990Z,4.19
2022-11-15T04:28:31.353Z,3.73
2022-11-15T04:31:17.974Z,4.40
2022-11-15T04:34:04.460Z,4.45
2022-11-15T04:37:09.501Z,4.34
2022-11-15T04:39:57.585Z,4.51
2022-11-15T04:42:44.137Z,4.54
2022-11-15T04:45:30.923Z,4.50
2022-11-15T04:48:17.734Z,4.49
2022-11-15T04:51:04.483Z,4.19
2022-11-15T04:53:50.971Z,4.33
2022-11-15T04:56:37.962Z,4.38
2022-11-15T04:59:24.572Z,4.39
2022-11-15T05:02:11.088Z,4.38
2022-11-15T05:04:59.037Z,4.39
2022-11-15T05:07:45.776Z,4.39
2022-11-15T05:10:32.513Z,4.33
2022-11-15T05:13:19.545Z,4.36
2022-11-15T05:16:06.286Z,4.12
2022-11-15T05:18:55.362Z,4.27
2022-11-15T05:21:42.059Z,4.28
2022-11-15T05:24:28.673Z,4.21
2022-11-15T05:27:15.106Z,4.27
2022-11-15T05:30:01.944Z,3.89
2022-11-15T05:32:49.615Z,3.78
2022-11-15T05:35:42.887Z,4.21
2022-11-15T05:38:30.151Z,4.16
2022-11-15T05:41:20.531Z,4.21
2022-11-15T05:44:11.326Z,4.14
2022-11-15T05:46:59.086Z,4.18
2022-11-15T05:49:49.020Z,4.16
2022-11-15T05:52:37.936Z,3.82
2022-11-15T05:55:24.781Z,4.21
2022-11-15T05:58:11.341Z,4.08
2022-11-15T06:00:58.113Z,4.17
2022-11-15T06:03:44.711Z,4.10
2022-11-15T06:06:31.898Z,4.17
2022-11-15T06:09:18.757Z,4.15
2022-11-15T06:12:05.506Z,4.10
2022-11-15T06:14:53.846Z,3.95
2022-11-15T06:17:40.784Z,3.59
2022-11-15T06:20:29.540Z,4.09
2022-11-15T06:23:16.338Z,3.85
2022-11-15T06:26:04.567Z,3.85
2022-11-15T06:28:51.214Z,4.02
2022-11-15T06:31:38.572Z,4.10
2022-11-15T06:34:25.291Z,4.08
2022-11-15T06:37:12.034Z,3.78
2022-11-15T06:39:58.736Z,3.87
2022-11-15T06:42:45.265Z,3.99
2022-11-15T06:45:32.765Z,3.95
2022-11-15T06:48:19.753Z,4.03
2022-11-15T06:51:06.684Z,3.96
2022-11-15T06:53:53.408Z,4.05
2022-11-15T06:56:40.002Z,4.06
2022-11-15T06:59:26.702Z,4.04
2022-11-15T07:02:16.340Z,4.20
2022-11-15T07:05:03.105Z,4.28
2022-11-15T07:07:57.952Z,4.27
2022-11-15T07:10:44.729Z,4.25
2022-11-15T07:13:36.669Z,4.08
2022-11-15T07:16:23.339Z,4.37
2022-11-15T07:19:10.882Z,4.29
2022-11-15T07:21:57.770Z,4.19
2022-11-15T07:24:44.269Z,3.95
2022-11-15T07:27:31.075Z,3.89
2022-11-15T07:30:17.681Z,4.20
2022-11-15T07:33:04.606Z,4.13
2022-11-15T07:35:51.192Z,3.84
2022-11-15T07:38:42.798Z,4.41
2022-11-15T07:41:30.841Z,4.30
2022-11-15T07:44:17.405Z,4.46
2022-11-15T07:47:04.178Z,4.17
2022-11-15T07:49:50.657Z,4.43
2022-11-15T07:52:37.299Z,4.32
2022-11-15T07:55:31.795Z,4.34
2022-11-15T07:58:18.878Z,4.34
2022-11-15T08:01:08.139Z,4.38
2022-11-15T08:03:55.387Z,4.48
2022-11-15T08:06:42.192Z,4.09
2022-11-15T08:09:29.120Z,4.45
2022-11-15T08:12:16.294Z,4.47
2022-11-15T08:15:03.421Z,4.24
2022-11-15T08:17:59.641Z,4.27
2022-11-15T08:20:46.381Z,4.52
2022-11-15T08:23:34.766Z,4.59
2022-11-15T08:26:21.722Z,4.62
2022-11-15T08:29:11.196Z,4.67
2022-11-15T08:31:58.615Z,4.64
2022-11-15T08:34:45.705Z,4.89
2022-11-15T08:37:32.547Z,4.96
2022-11-15T08:40:20.276Z,5.02
2022-11-15T08:43:07.108Z,5.04
2022-11-15T08:45:58.560Z,5.09
2022-11-15T08:48:45.141Z,5.12
2022-11-15T08:51:32.171Z,5.20
2022-11-15T08:54:18.755Z,5.27
2022-11-15T08:57:05.284Z,4.98
2022-11-15T08:59:51.982Z,4.91
2022-11-15T09:02:42.125Z,5.25
2022-11-15T09:05:28.804Z,5.30
2022-11-15T09:08:40.885Z,5.30
2022-11-15T09:11:23.155Z,5.27
2022-11-15T09:14:14.600Z,5.36
2022-11-15T09:17:02.653Z,5.38
2022-11-15T09:19:49.244Z,5.06
2022-11-15T09:22:35.983Z,5.36
2022-11-15T09:25:22.787Z,5.30
2022-11-15T09:28:09.837Z,5.67
2022-11-15T09:31:04.884Z,5.79
2022-11-15T09:33:53.750Z,5.53
2022-11-15T09:36:40.372Z,5.66
2022-11-15T09:39:27.156Z,5.55
2022-11-15T09:42:25.818Z,5.54
2022-11-15T09:45:43.069Z,5.49
2022-11-15T09:49:00.392Z,5.89
2022-11-15T09:51:47.963Z,5.93
2022-11-15T09:54:53.978Z,5.73
2022-11-15T09:58:43.054Z,6.19
2022-11-15T10:01:42.847Z,6.32
2022-11-15T10:04:12.089Z,6.27
2022-11-15T10:06:54.077Z,6.18
2022-11-15T10:09:33.226Z,6.31
2022-11-15T10:12:01.625Z,6.31
2022-11-15T10:14:32.563Z,6.14
2022-11-15T10:17:32.662Z,6.42
2022-11-15T10:20:18.883Z,6.47
2022-11-15T10:22:54.604Z,6.52
2022-11-15T10:25:32.474Z,6.54
2022-11-15T10:28:24.135Z,6.61
2022-11-15T10:30:57.307Z,6.53
2022-11-15T10:33:40.370Z,6.52
2022-11-15T10:36:14.434Z,6.40
2022-11-15T10:38:53.869Z,6.68
2022-11-15T10:41:27.747Z,6.80
2022-11-15T10:44:20.199Z,6.95
2022-11-15T10:46:57.862Z,6.71
2022-11-15T10:49:31.750Z,6.88
2022-11-15T10:52:21.464Z,6.70
2022-11-15T10:55:24.445Z,7.06
2022-11-15T10:57:56.986Z,7.09
2022-11-15T11:00:40.356Z,7.04
2022-11-15T11:03:41.511Z,7.08
2022-11-15T11:06:19.739Z,6.96
2022-11-15T11:08:57.229Z,7.20
2022-11-15T11:11:26.499Z,7.24
2022-11-15T11:13:54.909Z,7.27
2022-11-15T11:17:20.107Z,7.19
2022-11-15T11:20:10.548Z,7.44
2022-11-15T11:22:44.881Z,6.64
2022-11-15T11:25:45.766Z,7.28
2022-11-15T11:28:51.620Z,7.51
2022-11-15T11:31:39.120Z,7.45
2022-11-15T11:34:35.405Z,7.53
2022-11-15T11:37:39.927Z,7.37
2022-11-15T11:40:36.190Z,7.39
2022-11-15T11:43:39.586Z,7.28
2022-11-15T11:46:47.259Z,7.58
2022-11-15T11:49:32.184Z,7.40
2022-11-15T11:52:23.395Z,7.85
2022-11-15T11:55:15.924Z,7.98
2022-11-15T11:58:36.175Z,8.16
2022-11-15T12:01:13.064Z,7.87
2022-11-15T12:04:15.284Z,8.12
2022-11-15T12:07:09.665Z,7.95
2022-11-15T12:09:46.187Z,8.12
2022-11-15T12:12:44.935Z,8.10
2022-11-15T12:15:28.696Z,8.01
2022-11-15T12:17:58.341Z,8.58
2022-11-15T12:20:34.188Z,8.68
2022-11-15T12:23:04.652Z,8.87
2022-11-15T12:25:50.662Z,8.75
2022-11-15T12:28:52.946Z,8.50
2022-11-15T12:31:36.618Z,8.52
2022-11-15T12:34:21.922Z,8.52
2022-11-15T12:36:52.585Z,7.97
2022-11-15T12:39:20.826Z,8.02
2022-11-15T12:41:58.218Z,8.18
2022-11-15T12:44:32.012Z,8.01
2022-11-15T12:47:03.458Z,7.91
2022-11-15T12:49:31.245Z,7.97
2022-11-15T12:51:59.136Z,8.04
2022-11-15T12:54:28.559Z,8.00
2022-11-15T12:57:08.151Z,7.64
2022-11-15T13:00:04.207Z,7.59
2022-11-15T13:02:33.669Z,7.74
2022-11-15T13:05:17.282Z,7.74
2022-11-15T13:07:47.940Z,7.72
2022-11-15T13:10:28.632Z,7.75
2022-11-15T13:13:08.174Z,7.64
2022-11-15T13:16:00.628Z,7.57
2022-11-15T13:18:40.847Z,7.57
2022-11-15T13:21:44.623Z,7.51
2022-11-15T13:24:18.154Z,7.48
2022-11-15T13:26:47.313Z,7.73
2022-11-15T13:29:21.275Z,7.90
2022-11-15T13:31:50.419Z,8.06
2022-11-15T13:34:54.226Z,8.20
2022-11-15T13:37:22.245Z,7.76
2022-11-15T13:39:50.804Z,7.74
2022-11-15T13:42:22.078Z,7.85
2022-11-15T13:45:02.168Z,7.78
2022-11-15T13:47:31.266Z,7.60
2022-11-15T13:50:02.149Z,7.65
2022-11-15T13:52:38.072Z,7.92
2022-11-15T13:55:14.785Z,7.91
2022-11-15T13:57:56.861Z,8.07
2022-11-15T14:00:47.519Z,7.63
2022-11-15T14:03:28.927Z,8.20
2022-11-15T14:06:17.848Z,8.24
2022-11-15T14:09:11.362Z,8.16
2022-11-15T14:11:57.227Z,8.23
2022-11-15T14:14:30.970Z,8.22
2022-11-15T14:17:01.878Z,8.29
2022-11-15T14:19:29.665Z,8.04
2022-11-15T14:22:24.262Z,8.22
2022-11-15T14:25:14.129Z,8.08
2022-11-15T14:27:45.644Z,7.88
2022-11-15T14:30:18.313Z,7.63
2022-11-15T14:32:50.517Z,7.54
2022-11-15T14:35:22.929Z,7.33
2022-11-15T14:37:51.856Z,6.97
2022-11-15T14:40:23.270Z,6.87
2022-11-15T14:42:51.830Z,6.83
2022-11-15T14:45:23.521Z,6.82
2022-11-15T14:47:51.564Z,6.61
2022-11-15T14:50:22.412Z,6.58
2022-11-15T14:52:50.975Z,6.09
2022-11-15T14:55:37.514Z,6.26
2022-11-15T14:58:09.066Z,5.97
2022-11-15T15:00:43.058Z,5.82
2022-11-15T15:03:11.371Z,6.06
2022-11-15T15:05:45.210Z,5.99
2022-11-15T15:08:13.319Z,5.77
2022-11-15T15:10:44.903Z,5.77
2022-11-15T15:13:22.871Z,5.38
2022-11-15T15:15:52.633Z,5.58
2022-11-15T15:18:21.422Z,5.27
2022-11-15T15:21:01.475Z,5.35
2022-11-15T15:23:32.136Z,5.00
2022-11-15T15:26:00.509Z,5.29
2022-11-15T15:28:34.299Z,4.91
2022-11-15T15:31:03.574Z,4.91
2022-11-15T15:33:31.963Z,5.20
2022-11-15T15:36:00.376Z,5.09
2022-11-15T15:38:28.534Z,4.58
2022-11-15T15:41:01.074Z,5.09
2022-11-15T15:43:29.101Z,4.83
2022-11-15T15:45:57.377Z,4.93
2022-11-15T15:48:26.283Z,4.91
2022-11-15T15:50:54.281Z,4.87
2022-11-15T15:53:22.184Z,4.56
2022-11-15T15:55:50.359Z,4.72
2022-11-15T15:58:18.494Z,4.71
2022-11-15T16:00:46.560Z,4.69
2022-11-15T16:03:14.920Z,4.54
2022-11-15T16:05:43.171Z,4.48
2022-11-15T16:08:24.835Z,4.44
2022-11-15T16:10:53.412Z,4.28
2022-11-15T16:13:23.667Z,4.39
2022-11-15T16:15:56.016Z,4.29
2022-11-15T16:18:24.265Z,4.32
2022-11-15T16:20:55.911Z,4.35
2022-11-15T16:23:25.635Z,4.34
2022-11-15T16:25:56.906Z,4.31
2022-11-15T16:28:32.344Z,3.94
2022-11-15T16:31:11.728Z,3.99
2022-11-15T16:33:41.262Z,4.17
2022-11-15T16:36:35.921Z,3.98
2022-11-15T16:39:05.333Z,4.04
2022-11-15T16:41:33.769Z,3.72
2022-11-15T16:44:01.885Z,4.02
2022-11-15T16:46:30.798Z,3.69
2022-11-15T16:48:59.418Z,3.69
2022-11-15T16:51:27.539Z,3.79
2022-11-15T16:53:55.837Z,3.47
2022-11-15T16:56:31.429Z,3.49
2022-11-15T16:59:01.996Z,3.61
2022-11-15T17:01:36.296Z,3.53
2022-11-15T17:04:15.560Z,3.53
2022-11-15T17:06:45.931Z,3.54
2022-11-15T17:09:26.512Z,3.51
2022-11-15T17:11:54.756Z,3.36
2022-11-15T17:14:23.285Z,3.03
2022-11-15T17:16:51.525Z,3.13
2022-11-15T17:19:21.592Z,3.38
2022-11-15T17:21:50.070Z,3.34
2022-11-15T17:24:21.276Z,3.27
2022-11-15T17:26:49.413Z,3.23
2022-11-15T17:29:18.738Z,3.11
2022-11-15T17:31:47.008Z,2.94
2022-11-15T17:34:15.042Z,2.87
2022-11-15T17:36:43.232Z,3.10
2022-11-15T17:39:11.179Z,2.99
2022-11-15T17:41:39.224Z,3.07
2022-11-15T17:44:07.416Z,2.87
2022-11-15T17:46:36.954Z,3.13
2022-11-15T17:49:04.989Z,3.17
2022-11-15T17:51:35.549Z,3.19
2022-11-15T17:54:03.792Z,3.20
2022-11-15T17:56:31.927Z,3.05
2022-11-15T17:59:00.904Z,3.14
2022-11-15T18:01:38.831Z,3.01
2022-11-15T18:04:10.846Z,3.16
2022-11-15T18:06:38.961Z,3.04
2022-11-15T18:09:08.600Z,3.38
2022-11-15T18:11:40.327Z,3.42
2022-11-15T18:14:14.139Z,3.54
2022-11-15T18:16:43.122Z,3.29
2022-11-15T18:19:14.225Z,3.63
2022-11-15T18:21:57.595Z,3.44
2022-11-15T18:24:31.645Z,3.87
2022-11-15T18:27:02.910Z,4.01
2022-11-15T18:29:31.397Z,4.06
2022-11-15T18:32:06.658Z,3.86
2022-11-15T18:34:34.766Z,3.98
2022-11-15T18:37:03.547Z,3.75
2022-11-15T18:39:32.112Z,4.05
2022-11-15T18:42:01.387Z,3.86
2022-11-15T18:44:30.521Z,4.11
2022-11-15T18:46:58.777Z,4.20
2022-11-15T18:49:27.029Z,4.18
2022-11-15T18:51:56.662Z,4.20
2022-11-15T18:54:30.637Z,4.30
2022-11-15T18:57:00.481Z,4.28
2022-11-15T18:59:29.312Z,4.28
2022-11-15T19:01:58.068Z,4.25
2022-11-15T19:04:26.359Z,4.34
2022-11-15T19:06:54.633Z,4.38
2022-11-15T19:09:27.607Z,4.35
2022-11-15T19:11:56.005Z,4.34
2022-11-15T19:14:26.342Z,4.35
2022-11-15T19:16:55.399Z,4.16
2022-11-15T19:19:28.008Z,3.36
2022-11-15T19:21:57.689Z,4.26
2022-11-15T19:24:27.648Z,4.25
2022-11-15T19:26:55.901Z,4.40
2022-11-15T19:29:23.959Z,4.43
2022-11-15T19:31:52.157Z,4.36
2022-11-15T19:34:21.222Z,4.37
2022-11-15T19:36:49.335Z,4.46
2022-11-15T19:39:18.778Z,4.50
2022-11-15T19:41:47.360Z,4.44
2022-11-15T19:44:15.592Z,4.50
2022-11-15T19:46:44.544Z,4.52
2022-11-15T19:49:12.810Z,4.52
2022-11-15T19:51:42.842Z,4.52
2022-11-15T19:54:11.249Z,4.46
2022-11-15T19:56:42.359Z,4.48
2022-11-15T19:59:12.062Z,4.27
2022-11-15T20:01:43.406Z,4.42
2022-11-15T20:04:12.668Z,4.61
2022-11-15T20:06:43.315Z,4.70
2022-11-15T20:09:16.805Z,4.66
2022-11-15T20:11:45.293Z,4.66
2022-11-15T20:14:13.506Z,4.72
2022-11-15T20:16:42.210Z,4.20
2022-11-15T20:19:12.544Z,4.71
2022-11-15T20:21:40.989Z,4.72
2022-11-15T20:24:09.767Z,4.81
2022-11-15T20:26:39.107Z,4.81
2022-11-15T20:29:10.318Z,4.83
2022-11-15T20:31:38.673Z,4.40
2022-11-15T20:34:06.978Z,4.69
2022-11-15T20:36:35.113Z,4.92
2022-11-15T20:39:03.535Z,4.91
2022-11-15T20:41:32.048Z,4.61
2022-11-15T20:44:03.415Z,4.84
2022-11-15T20:46:31.507Z,4.88
2022-11-15T20:48:59.616Z,5.05
2022-11-15T20:51:27.903Z,5.08
2022-11-15T20:53:57.145Z,5.12
2022-11-15T20:56:25.366Z,5.05
2022-11-15T20:58:55.000Z,5.03
2022-11-15T21:01:25.014Z,4.97
2022-11-15T21:03:55.925Z,5.05
2022-11-15T21:06:26.319Z,5.01
2022-11-15T21:09:14.253Z,4.90
2022-11-15T21:12:01.637Z,5.12
2022-11-15T21:14:30.305Z,5.07
2022-11-15T21:16:58.651Z,4.86
2022-11-15T21:19:49.557Z,5.22
2022-11-15T21:22:17.737Z,5.05
2022-11-15T21:24:46.002Z,5.19
2022-11-15T21:27:15.605Z,5.05
2022-11-15T21:29:46.040Z,5.28
2022-11-15T21:32:14.620Z,5.11
2022-11-15T21:34:43.133Z,5.07
2022-11-15T21:37:11.379Z,5.13
2022-11-15T21:39:39.834Z,5.16
2022-11-15T21:42:08.091Z,4.90
2022-11-15T21:44:38.326Z,5.23
2022-11-15T21:47:06.623Z,5.23
2022-11-15T21:49:35.424Z,5.27
2022-11-15T21:52:03.917Z,5.27
2022-11-15T21:54:32.029Z,5.24
2022-11-15T21:57:00.134Z,5.28
2022-11-15T21:59:28.132Z,5.36
2022-11-15T22:02:14.669Z,5.28
2022-11-15T22:04:52.079Z,5.40
2022-11-15T22:07:21.080Z,5.28
2022-11-15T22:09:49.690Z,5.46
2022-11-15T22:12:18.230Z,5.33
2022-11-15T22:14:46.485Z,5.46
2022-11-15T22:17:14.848Z,5.56
2022-11-15T22:19:52.310Z,5.53
2022-11-15T22:22:20.867Z,5.44
2022-11-15T22:24:49.270Z,5.53
2022-11-15T22:27:17.272Z,5.41
2022-11-15T22:29:45.305Z,5.56
2022-11-15T22:32:13.684Z,5.50
2022-11-15T22:34:42.002Z,5.62
2022-11-15T22:37:25.385Z,5.31
2022-11-15T22:39:53.602Z,5.78
2022-11-15T22:42:23.963Z,5.75
2022-11-15T22:44:52.614Z,5.76
2022-11-15T22:47:21.895Z,5.88
2022-11-15T22:49:50.157Z,5.82
2022-11-15T22:52:18.991Z,5.65
2022-11-15T22:54:48.504Z,5.95
2022-11-15T22:57:17.167Z,5.61
2022-11-15T22:59:45.314Z,5.91
2022-11-15T23:02:14.531Z,5.73
2022-11-15T23:04:42.492Z,5.63
2022-11-15T23:07:10.555Z,5.29
2022-11-15T23:09:40.977Z,5.23
2022-11-15T23:12:30.181Z,5.78
2022-11-15T23:14:58.511Z,5.68
2022-11-15T23:17:26.450Z,5.73
2022-11-15T23:19:55.966Z,5.72
2022-11-15T23:22:43.295Z,5.72
2022-11-15T23:25:11.256Z,5.34
2022-11-15T23:27:39.617Z,5.83
2022-11-15T23:30:26.978Z,5.64
2022-11-15T23:33:14.562Z,5.64
2022-11-15T23:35:42.568Z,5.67
2022-11-15T23:38:10.769Z,5.76
2022-11-15T23:40:38.665Z,5.93
2022-11-15T23:43:07.370Z,5.70
2022-11-15T23:45:38.283Z,5.89
2022-11-15T23:48:06.600Z,5.59
2022-11-15T23:50:36.456Z,5.76
2022-11-15T23:53:05.232Z,6.03
2022-11-15T23:55:33.103Z,5.97
2022-11-15T23:58:01.161Z,5.75
